• Join FlightAware (Why Join?)
  • Login
  • US Flag 
06:49PM EDT


 

Airport Tracker/Info


-or-


 

Live Flight TrackerFlight Track Log ✈ N913CS ✈ 05-Mar-2014 ✈ KCID - KBWI

Flight Track Log - Related Links

Times and Time Zones

All times are in EST time to prevent confusion due to time zone crossing. See the N913CS flight status page for this flight to view local times or setup timezone preferences in your user account.

Time Position Orientation Groundspeed Altitude Reporting Facility
EST Latitude Longitude Course Direction KTS MPH feet Rate Location/Type
03:07PM 41.8306 -91.6375 100° East 209 241 4,500  Level Chicago Center
03:08PM 41.8047 -91.5514 112° Southeast 254 292 7,900 2,820 Climbing Chicago Center
03:09PM 41.7906 -91.4447 100° East 291 335 10,400 2,340 Climbing Chicago Center
03:10PM 41.7775 -91.3197 98° East 332 382 12,800 2,100 Climbing Chicago Center
03:11PM 41.7608 -91.1853 99° East 361 415 14,800 1,980 Climbing Chicago Center
03:12PM 41.7708 -90.8198 100° East  Level FlightAware Approximate
03:12PM 41.7403 -91.0072 99° East 401 461 17,000  Level Chicago Center
03:13PM 41.7211 -90.8539 99° East 416 479 18,500 1,620 Climbing Chicago Center
03:14PM 41.7019 -90.6975 99° East 427 491 20,400 1,920 Climbing Chicago Center
03:15PM 41.6800 -90.5214 99° East 441 507 22,500 1,200 Climbing Chicago Center
03:16PM 41.6586 -90.3558 100° East 448 516 23,000 900 Climbing Chicago Center
03:17PM 41.6372 -90.1900 100° East 451 519 24,400 1,500 Climbing Chicago Center
03:18PM 41.6161 -90.0208 99° East 457 526 26,100 1,320 Climbing Chicago Center
03:19PM 41.5936 -89.8492 100° East 463 533 27,200 960 Climbing Chicago Center
03:20PM 41.5703 -89.6744 100° East 472 543 28,200 960 Climbing Chicago Center
03:21PM 41.5450 -89.4847 100° East 484 557 29,300 1,080 Climbing Chicago Center
03:22PM 41.5181 -89.2803 100° East 490 564 30,500 1,200 Climbing Chicago Center
03:23PM 41.4908 -89.0922 101° East 491 565 31,800 1,380 Climbing Chicago Center
03:24PM 41.4667 -88.9161 100° East 487 560 33,400 1,380 Climbing Chicago Center
03:25PM 41.4425 -88.7433 101° East 480 552 34,700 1,200 Climbing Chicago Center
03:26PM 41.4178 -88.5708 101° East 477 549 36,000 1,140 Climbing Chicago Center
03:27PM 41.3925 -88.3983 101° East 477 549 37,100 1,080 Climbing Chicago Center
03:28PM 41.3633 -88.1947 101° East 474 545 38,300 900 Climbing Chicago Center
03:29PM 41.3392 -88.0244 101° East 473 544 39,000 300 Climbing Chicago Center
03:30PM 41.3139 -87.8661 102° East 468 539 39,000  Level Chicago Center
03:31PM 41.2883 -87.6931 101° East 477 549 39,000  Level Chicago Center
03:32PM 41.2572 -87.4853 101° East 480 552 39,000  Level Chicago Center
03:33PM 41.2283 -87.3106 102° East 484 557 39,000  Level Chicago Center
03:35PM 41.2011 -87.1378 102° East 481 554 39,000  Level Chicago Center
03:36PM 41.1728 -86.9506 101° East 486 559 39,000  Level Chicago Center
03:37PM 41.1461 -86.7903 102° East 480 552 39,000  Level Chicago Center
03:38PM 41.1172 -86.6064 102° East 482 555 39,000  Level Chicago Center
03:39PM 41.0894 -86.4331 102° East 481 554 39,000  Level Chicago Center
03:40PM 41.0553 -86.2272 102° East 479 551 39,000  Level Chicago Center
03:41PM 41.0264 -86.0553 103° East 480 552 39,000  Level Chicago Center
03:42PM 40.9964 -85.8825 103° East 485 558 39,000  Level Chicago Center
03:43PM 40.9678 -85.7103 102° East 484 557 39,000  Level Chicago Center
03:44PM 40.9375 -85.5364 103° East 488 562 39,000  Level Chicago Center
03:45PM 40.9069 -85.3628 103° East 488 562 39,000  Level Chicago Center
03:46PM 40.8703 -85.1486 103° East 501 577 39,000  Level Chicago Center
03:47PM 40.8400 -84.9769 103° East 491 565 39,000  Level Chicago Center
03:48PM 40.8097 -84.8036 103° East 489 563 39,000  Level Chicago Center
03:49PM 40.7783 -84.6319 104° East 486 559 39,000  Level Chicago Center
03:50PM 40.7564 -84.5125 104° East 486 559 39,000  Level Indianapolis Center
03:51PM 40.7239 -84.3403 104° East 485 558 39,000  Level Indianapolis Center
03:52PM 40.6861 -84.1339 104° East 485 558 39,000  Level Indianapolis Center
03:53PM 40.6553 -83.9625 103° East 485 558 39,000  Level Indianapolis Center
03:54PM 40.6228 -83.7897 104° East 484 557 39,000  Level Indianapolis Center
03:55PM 40.5894 -83.6181 104° East 485 558 39,000  Level Indianapolis Center
03:56PM 40.5561 -83.4456 104° East 485 558 39,000  Level Indianapolis Center
03:57PM 40.5231 -83.2731 104° East 485 558 39,000  Level Indianapolis Center
03:58PM 40.4828 -83.0656 104° East 485 558 39,000  Level Indianapolis Center
03:59PM 40.4483 -82.8917 105° East 486 559 39,000  Level Indianapolis Center
04:00PM 40.4153 -82.7278 105° East 487 560 39,000  Level Indianapolis Center
04:01PM 40.3811 -82.5525 104° East 489 563 39,000  Level Indianapolis Center
04:02PM 40.3397 -82.3486 105° East 490 564 39,000  Level Indianapolis Center
04:03PM 40.3036 -82.1744 105° East 490 564 39,000  Level Indianapolis Center
04:04PM 40.2681 -82.0003 105° East 491 565 39,000  Level Indianapolis Center
04:05PM 40.2303 -81.8164 105° East 491 565 39,000  Level Indianapolis Center
04:06PM 40.1964 -81.6542 105° East 491 565 39,000  Level Indianapolis Center
04:07PM 40.1600 -81.4825 105° East 491 565 39,000  Level Indianapolis Center
04:08PM 40.1181 -81.2817 105° East 490 564 39,000  Level Indianapolis Center
04:09PM 40.0825 -81.1144 105° East 483 556 39,000  Level Indianapolis Center
04:10PM 40.0456 -80.9475 106° East 480 552 39,000 -360 Level Indianapolis Center
04:11PM 40.0186 -80.8242 106° East 478 550 38,400 -900 Descending Cleveland Center
04:12PM 39.9844 -80.6517 104° East 493 567 37,500 -720 Descending Cleveland Center
04:13PM 39.9489 -80.4786 105° East 498 573 37,000 -540 Descending Cleveland Center
04:14PM 39.9158 -80.3117 104° East 488 562 36,400 -1,020 Descending Cleveland Center
04:15PM 39.8817 -80.1500 105° East 474 545 34,900 -1,740 Descending Cleveland Center
04:16PM 39.8414 -79.9525 105° East 473 544 32,900 -1,980 Descending Cleveland Center
04:17PM 39.8061 -79.7806 105° East 491 565 30,900 -1,920 Descending Cleveland Center
04:18PM 39.7711 -79.6125 105° East 489 563 29,000 -2,100 Descending Cleveland Center
04:19PM 39.7356 -79.4433 105° East 487 560 26,600 -1,980 Descending Cleveland Center
04:20PM 39.6994 -79.2733 105° East 489 563 25,000 -780 Descending Cleveland Center
04:22PM 39.6575 -79.0633 104° East 485 558 25,000 -180 Level Washington Center
04:23PM 39.6200 -78.9106 108° East 485 558 24,700 -1,500 Descending Washington Center
04:23PM 39.5850 -78.7475 106° East 485 558 22,100 -2,760 Descending Washington Center
04:24PM 39.5514 -78.5897 105° East 473 544 19,300 -2,700 Descending Washington Center
04:26PM 39.5175 -78.4403 106° East 446 513 16,700 -2,160 Descending Washington Center
04:27PM 39.4853 -78.2994 106° East 429 494 15,000 -900 Descending Washington Center
04:28PM 39.4531 -78.1611 107° East 405 466 14,900 -60 Descending Washington Center
04:28PM 39.4350 -78.0181 99° East 405 466 14,900  Level Washington Center
04:29PM 39.4378 -77.8756 89° East 392 451 15,000 -300 Climbing Washington Center
04:31PM 39.4406 -77.7281 89° East 397 457 14,300 -1,500 Descending Washington Center
04:31PM 39.4431 -77.5883 89° East 397 457 12,000 -1,680 Descending Washington Center
04:32PM 39.4428 -77.4592 90° East 382 440 11,000 -540 Descending Washington Center
04:34PM 39.4469 -77.3383 87° East 355 409 11,000  Level Washington Center
04:35PM 39.4631 -77.2233 80° East 337 388 11,000 -720 Level Washington Center
04:36PM 39.4833 -77.0500 81° East 320 368 9,400 -1,380 Descending Potomac TRACON
04:37PM 39.4833 -76.9333 90° East 323 372 7,700 -2,160 Descending Potomac TRACON
04:38PM 39.4167 -76.8667 142° Southeast 288 331 5,100 -2,400 Descending Potomac TRACON
04:39PM 39.3500 -76.8167 150° Southeast 267 307 2,900 -1,260 Descending Potomac TRACON
04:40PM 39.3000 -76.7667 142° Southeast 234 269 2,600 -540 Descending Potomac TRACON
04:41PM 39.2500 -76.7167 142° Southeast 180 207 1,900 -900 Descending Potomac TRACON
04:42PM 39.2167 -76.7000 159° South 156 180 1,000 -1,020 Descending Potomac TRACON
04:44PM 39.1754 -76.6683 142° Southeast  Level Estimated
04:51PM 39.1754 -76.6683 142° Southeast  Level Estimated
04:52PM 39.1754 -76.6683 142° Southeast  Level Estimated